sensor_id;sensor_type;location;lat;lon;timestamp;temperature;humidity
50067;DHT22;35952;52.524;13.340;2022-10-16T00:00:32;16.00;99.90
50067;DHT22;35952;52.524;13.340;2022-10-16T00:02:57;16.00;99.90
50067;DHT22;35952;52.524;13.340;2022-10-16T00:05:23;16.00;99.90
50067;DHT22;35952;52.524;13.340;2022-10-16T00:07:48;15.90;99.90
50067;DHT22;35952;52.524;13.340;2022-10-16T00:10:14;15.90;99.90
50067;DHT22;35952;52.524;13.340;2022-10-16T00:12:40;16.10;99.90
50067;DHT22;35952;52.524;13.340;2022-10-16T00:15:05;16.10;99.90
50067;DHT22;35952;52.524;13.340;2022-10-16T00:17:31;16.10;99.90
50067;DHT22;35952;52.524;13.340;2022-10-16T00:19:57;16.20;99.90
50067;DHT22;35952;52.524;13.340;2022-10-16T00:22:23;16.30;99.90
50067;DHT22;35952;52.524;13.340;2022-10-16T00:24:48;16.00;99.90
50067;DHT22;35952;52.524;13.340;2022-10-16T00:27:14;16.10;99.90
50067;DHT22;35952;52.524;13.340;2022-10-16T00:29:39;16.00;99.90
50067;DHT22;35952;52.524;13.340;2022-10-16T00:32:05;16.00;99.90
50067;DHT22;35952;52.524;13.340;2022-10-16T00:34:30;16.10;99.90
50067;DHT22;35952;52.524;13.340;2022-10-16T00:36:56;16.10;99.90
50067;DHT22;35952;52.524;13.340;2022-10-16T00:39:21;16.20;99.90
50067;DHT22;35952;52.524;13.340;2022-10-16T00:41:47;16.20;99.90
50067;DHT22;35952;52.524;13.340;2022-10-16T00:47:10;16.30;99.90
50067;DHT22;35952;52.524;13.340;2022-10-16T00:49:36;16.30;99.90
50067;DHT22;35952;52.524;13.340;2022-10-16T00:52:02;16.20;99.90
50067;DHT22;35952;52.524;13.340;2022-10-16T00:54:29;16.20;99.90
50067;DHT22;35952;52.524;13.340;2022-10-16T00:56:59;16.30;99.90
50067;DHT22;35952;52.524;13.340;2022-10-16T00:59:29;16.20;99.90
50067;DHT22;35952;52.524;13.340;2022-10-16T01:01:56;16.20;99.90
50067;DHT22;35952;52.524;13.340;2022-10-16T01:04:23;16.10;99.90
50067;DHT22;35952;52.524;13.340;2022-10-16T01:07:07;16.30;99.90
50067;DHT22;35952;52.524;13.340;2022-10-16T01:12:27;16.20;99.90
50067;DHT22;35952;52.524;13.340;2022-10-16T01:15:14;16.20;99.90
50067;DHT22;35952;52.524;13.340;2022-10-16T01:20:29;16.10;99.90
50067;DHT22;35952;52.524;13.340;2022-10-16T01:28:13;16.20;99.90
50067;DHT22;35952;52.524;13.340;2022-10-16T01:30:41;16.20;99.90
50067;DHT22;35952;52.524;13.340;2022-10-16T01:33:20;16.20;99.90
50067;DHT22;35952;52.524;13.340;2022-10-16T01:35:53;16.30;99.90
50067;DHT22;35952;52.524;13.340;2022-10-16T01:38:21;16.20;99.90
50067;DHT22;35952;52.524;13.340;2022-10-16T01:40:57;16.30;99.90
50067;DHT22;35952;52.524;13.340;2022-10-16T01:43:46;16.20;99.90
50067;DHT22;35952;52.524;13.340;2022-10-16T01:46:13;16.20;99.90
50067;DHT22;35952;52.524;13.340;2022-10-16T01:48:41;16.20;99.90
50067;DHT22;35952;52.524;13.340;2022-10-16T01:51:09;16.20;99.90
50067;DHT22;35952;52.524;13.340;2022-10-16T01:53:37;16.20;99.90
50067;DHT22;35952;52.524;13.340;2022-10-16T01:56:04;16.10;99.90
50067;DHT22;35952;52.524;13.340;2022-10-16T01:58:34;16.10;99.90
50067;DHT22;35952;52.524;13.340;2022-10-16T02:01:02;16.20;99.90
50067;DHT22;35952;52.524;13.340;2022-10-16T02:03:28;16.20;99.90
50067;DHT22;35952;52.524;13.340;2022-10-16T02:05:55;16.20;99.90
50067;DHT22;35952;52.524;13.340;2022-10-16T02:08:23;16.30;99.90
50067;DHT22;35952;52.524;13.340;2022-10-16T02:10:49;16.30;99.90
50067;DHT22;35952;52.524;13.340;2022-10-16T02:13:23;16.20;99.90
50067;DHT22;35952;52.524;13.340;2022-10-16T02:15:51;16.10;99.90
50067;DHT22;35952;52.524;13.340;2022-10-16T02:18:17;16.20;99.90
50067;DHT22;35952;52.524;13.340;2022-10-16T02:20:52;16.20;99.90
50067;DHT22;35952;52.524;13.340;2022-10-16T02:23:30;16.30;99.90
50067;DHT22;35952;52.524;13.340;2022-10-16T02:25:58;16.30;99.90
50067;DHT22;35952;52.524;13.340;2022-10-16T02:28:31;16.20;99.90
50067;DHT22;35952;52.524;13.340;2022-10-16T02:31:02;16.10;99.90
50067;DHT22;35952;52.524;13.340;2022-10-16T02:33:29;16.10;99.90
50067;DHT22;35952;52.524;13.340;2022-10-16T02:35:57;16.10;99.90
50067;DHT22;35952;52.524;13.340;2022-10-16T02:38:24;16.10;99.90
50067;DHT22;35952;52.524;13.340;2022-10-16T02:40:50;16.20;99.90
50067;DHT22;35952;52.524;13.340;2022-10-16T02:43:16;16.20;99.90
50067;DHT22;35952;52.524;13.340;2022-10-16T02:45:41;16.10;99.90
50067;DHT22;35952;52.524;13.340;2022-10-16T02:48:07;16.10;99.90
50067;DHT22;35952;52.524;13.340;2022-10-16T02:50:33;16.10;99.90
50067;DHT22;35952;52.524;13.340;2022-10-16T02:52:58;16.00;99.90
50067;DHT22;35952;52.524;13.340;2022-10-16T02:55:24;16.00;99.90
50067;DHT22;35952;52.524;13.340;2022-10-16T02:57:50;15.90;99.90
50067;DHT22;35952;52.524;13.340;2022-10-16T03:00:16;16.00;99.90
50067;DHT22;35952;52.524;13.340;2022-10-16T03:02:42;15.90;99.90
50067;DHT22;35952;52.524;13.340;2022-10-16T03:05:09;15.90;99.90
50067;DHT22;35952;52.524;13.340;2022-10-16T03:07:35;15.80;99.90
50067;DHT22;35952;52.524;13.340;2022-10-16T03:10:01;15.70;99.90
50067;DHT22;35952;52.524;13.340;2022-10-16T03:12:29;15.60;99.90
50067;DHT22;35952;52.524;13.340;2022-10-16T03:14:55;15.50;99.90
50067;DHT22;35952;52.524;13.340;2022-10-16T03:17:22;15.60;99.90
50067;DHT22;35952;52.524;13.340;2022-10-16T03:19:48;15.60;99.90
50067;DHT22;35952;52.524;13.340;2022-10-16T03:22:13;15.50;99.90
50067;DHT22;35952;52.524;13.340;2022-10-16T03:24:39;15.50;99.90
50067;DHT22;35952;52.524;13.340;2022-10-16T03:27:04;15.50;99.90
50067;DHT22;35952;52.524;13.340;2022-10-16T03:29:30;15.70;99.90
50067;DHT22;35952;52.524;13.340;2022-10-16T03:31:57;15.60;99.90
50067;DHT22;35952;52.524;13.340;2022-10-16T03:34:22;15.60;99.90
50067;DHT22;35952;52.524;13.340;2022-10-16T03:36:48;15.60;99.90
50067;DHT22;35952;52.524;13.340;2022-10-16T03:39:13;15.50;99.90
50067;DHT22;35952;52.524;13.340;2022-10-16T03:41:39;15.50;99.90
50067;DHT22;35952;52.524;13.340;2022-10-16T03:44:05;15.50;99.90
50067;DHT22;35952;52.524;13.340;2022-10-16T03:46:30;15.30;99.90
50067;DHT22;35952;52.524;13.340;2022-10-16T03:48:55;15.40;99.90
50067;DHT22;35952;52.524;13.340;2022-10-16T03:51:21;15.30;99.90
50067;DHT22;35952;52.524;13.340;2022-10-16T03:53:47;15.40;99.90
50067;DHT22;35952;52.524;13.340;2022-10-16T03:56:12;15.40;99.90
50067;DHT22;35952;52.524;13.340;2022-10-16T03:58:38;15.40;99.90
50067;DHT22;35952;52.524;13.340;2022-10-16T04:01:03;15.30;99.90
50067;DHT22;35952;52.524;13.340;2022-10-16T04:03:29;15.30;99.90
50067;DHT22;35952;52.524;13.340;2022-10-16T04:05:54;15.40;99.90
50067;DHT22;35952;52.524;13.340;2022-10-16T04:08:20;15.30;99.90
50067;DHT22;35952;52.524;13.340;2022-10-16T04:10:45;15.30;99.90
50067;DHT22;35952;52.524;13.340;2022-10-16T04:13:12;15.50;99.90
50067;DHT22;35952;52.524;13.340;2022-10-16T04:15:37;15.50;99.90
50067;DHT22;35952;52.524;13.340;2022-10-16T04:18:04;15.30;99.90
50067;DHT22;35952;52.524;13.340;2022-10-16T04:20:29;15.40;99.90
50067;DHT22;35952;52.524;13.340;2022-10-16T04:22:55;15.60;99.90
50067;DHT22;35952;52.524;13.340;2022-10-16T04:25:21;15.50;99.90
50067;DHT22;35952;52.524;13.340;2022-10-16T04:27:46;15.60;99.90
50067;DHT22;35952;52.524;13.340;2022-10-16T04:30:12;15.40;99.90
50067;DHT22;35952;52.524;13.340;2022-10-16T04:32:38;15.20;99.90
50067;DHT22;35952;52.524;13.340;2022-10-16T04:35:03;15.20;99.90
50067;DHT22;35952;52.524;13.340;2022-10-16T04:37:29;15.10;99.90
50067;DHT22;35952;52.524;13.340;2022-10-16T04:39:55;15.10;99.90
50067;DHT22;35952;52.524;13.340;2022-10-16T04:42:21;15.00;99.90
50067;DHT22;35952;52.524;13.340;2022-10-16T04:44:46;15.00;99.90
50067;DHT22;35952;52.524;13.340;2022-10-16T04:47:12;15.00;99.90
50067;DHT22;35952;52.524;13.340;2022-10-16T04:49:38;14.90;99.90
50067;DHT22;35952;52.524;13.340;2022-10-16T04:52:03;14.90;99.90
50067;DHT22;35952;52.524;13.340;2022-10-16T04:54:29;14.90;99.90
50067;DHT22;35952;52.524;13.340;2022-10-16T04:56:54;14.90;99.90
50067;DHT22;35952;52.524;13.340;2022-10-16T04:59:21;14.80;99.90
50067;DHT22;35952;52.524;13.340;2022-10-16T05:01:46;14.80;99.90
50067;DHT22;35952;52.524;13.340;2022-10-16T05:04:12;14.80;99.90
50067;DHT22;35952;52.524;13.340;2022-10-16T05:06:38;14.90;99.90
50067;DHT22;35952;52.524;13.340;2022-10-16T05:09:05;14.80;99.90
50067;DHT22;35952;52.524;13.340;2022-10-16T05:11:31;14.70;99.90
50067;DHT22;35952;52.524;13.340;2022-10-16T05:13:56;14.70;99.90
50067;DHT22;35952;52.524;13.340;2022-10-16T05:16:22;14.60;99.90
50067;DHT22;35952;52.524;13.340;2022-10-16T05:18:47;14.60;99.90
50067;DHT22;35952;52.524;13.340;2022-10-16T05:21:13;14.60;99.90
50067;DHT22;35952;52.524;13.340;2022-10-16T05:23:38;14.60;99.90
50067;DHT22;35952;52.524;13.340;2022-10-16T05:26:04;14.60;99.90
50067;DHT22;35952;52.524;13.340;2022-10-16T05:28:30;14.70;99.90
50067;DHT22;35952;52.524;13.340;2022-10-16T05:30:56;14.70;99.90
50067;DHT22;35952;52.524;13.340;2022-10-16T05:33:24;14.70;99.90
50067;DHT22;35952;52.524;13.340;2022-10-16T05:35:50;14.70;99.90
50067;DHT22;35952;52.524;13.340;2022-10-16T05:38:16;14.70;99.90
50067;DHT22;35952;52.524;13.340;2022-10-16T05:40:42;14.70;99.90
50067;DHT22;35952;52.524;13.340;2022-10-16T05:43:08;14.80;99.90
50067;DHT22;35952;52.524;13.340;2022-10-16T05:45:33;14.80;99.90
50067;DHT22;35952;52.524;13.340;2022-10-16T05:48:00;14.90;99.90
50067;DHT22;35952;52.524;13.340;2022-10-16T05:50:25;14.80;99.90
50067;DHT22;35952;52.524;13.340;2022-10-16T05:52:51;14.80;99.90
50067;DHT22;35952;52.524;13.340;2022-10-16T05:55:17;14.80;99.90
50067;DHT22;35952;52.524;13.340;2022-10-16T05:57:42;14.80;99.90
50067;DHT22;35952;52.524;13.340;2022-10-16T06:00:08;14.70;99.90
50067;DHT22;35952;52.524;13.340;2022-10-16T06:02:34;14.70;99.90
50067;DHT22;35952;52.524;13.340;2022-10-16T06:04:59;14.70;99.90
50067;DHT22;35952;52.524;13.340;2022-10-16T06:07:25;14.70;99.90
50067;DHT22;35952;52.524;13.340;2022-10-16T06:09:51;14.70;99.90
50067;DHT22;35952;52.524;13.340;2022-10-16T06:12:17;14.70;99.90
50067;DHT22;35952;52.524;13.340;2022-10-16T06:14:44;14.80;99.90
50067;DHT22;35952;52.524;13.340;2022-10-16T06:17:09;14.80;99.90
50067;DHT22;35952;52.524;13.340;2022-10-16T06:19:34;14.80;99.90
50067;DHT22;35952;52.524;13.340;2022-10-16T06:22:00;14.90;99.90
50067;DHT22;35952;52.524;13.340;2022-10-16T06:24:27;15.00;99.90
50067;DHT22;35952;52.524;13.340;2022-10-16T06:26:53;15.00;99.90
50067;DHT22;35952;52.524;13.340;2022-10-16T06:29:18;14.90;99.90
50067;DHT22;35952;52.524;13.340;2022-10-16T06:31:44;14.90;99.90
50067;DHT22;35952;52.524;13.340;2022-10-16T06:34:10;15.00;99.90
50067;DHT22;35952;52.524;13.340;2022-10-16T06:36:37;15.00;99.90
50067;DHT22;35952;52.524;13.340;2022-10-16T06:39:03;15.10;99.90
50067;DHT22;35952;52.524;13.340;2022-10-16T06:41:28;15.10;99.90
50067;DHT22;35952;52.524;13.340;2022-10-16T06:43:54;15.20;99.90
50067;DHT22;35952;52.524;13.340;2022-10-16T06:46:23;15.10;99.90
50067;DHT22;35952;52.524;13.340;2022-10-16T06:48:49;15.20;99.90
50067;DHT22;35952;52.524;13.340;2022-10-16T06:51:19;15.20;99.90
50067;DHT22;35952;52.524;13.340;2022-10-16T06:53:47;15.20;99.90
50067;DHT22;35952;52.524;13.340;2022-10-16T06:56:19;15.30;99.90
50067;DHT22;35952;52.524;13.340;2022-10-16T06:58:45;15.30;99.90
50067;DHT22;35952;52.524;13.340;2022-10-16T07:01:12;15.30;99.90
50067;DHT22;35952;52.524;13.340;2022-10-16T07:03:39;15.40;99.90
50067;DHT22;35952;52.524;13.340;2022-10-16T07:06:06;15.70;99.90
50067;DHT22;35952;52.524;13.340;2022-10-16T07:08:36;15.70;99.90
50067;DHT22;35952;52.524;13.340;2022-10-16T07:11:11;16.10;99.90
50067;DHT22;35952;52.524;13.340;2022-10-16T07:16:14;16.30;99.90
50067;DHT22;35952;52.524;13.340;2022-10-16T07:18:40;16.30;99.90
50067;DHT22;35952;52.524;13.340;2022-10-16T07:21:09;16.60;99.90
50067;DHT22;35952;52.524;13.340;2022-10-16T07:23:36;16.70;99.90
50067;DHT22;35952;52.524;13.340;2022-10-16T07:26:01;16.60;99.90
50067;DHT22;35952;52.524;13.340;2022-10-16T07:28:27;16.40;99.90
50067;DHT22;35952;52.524;13.340;2022-10-16T07:30:52;16.50;99.90
50067;DHT22;35952;52.524;13.340;2022-10-16T07:33:18;16.60;99.90
50067;DHT22;35952;52.524;13.340;2022-10-16T07:35:54;16.70;99.90
50067;DHT22;35952;52.524;13.340;2022-10-16T07:38:21;16.60;99.90
50067;DHT22;35952;52.524;13.340;2022-10-16T07:40:47;16.70;99.90
50067;DHT22;35952;52.524;13.340;2022-10-16T07:43:14;17.10;99.90
50067;DHT22;35952;52.524;13.340;2022-10-16T07:45:47;17.30;99.90
50067;DHT22;35952;52.524;13.340;2022-10-16T07:48:14;17.40;99.90
50067;DHT22;35952;52.524;13.340;2022-10-16T07:50:39;17.10;99.90
50067;DHT22;35952;52.524;13.340;2022-10-16T07:53:05;17.00;99.90
50067;DHT22;35952;52.524;13.340;2022-10-16T07:55:30;17.00;99.90
50067;DHT22;35952;52.524;13.340;2022-10-16T07:57:56;16.80;99.90
50067;DHT22;35952;52.524;13.340;2022-10-16T08:00:21;16.60;99.90
50067;DHT22;35952;52.524;13.340;2022-10-16T08:02:47;16.60;99.90
50067;DHT22;35952;52.524;13.340;2022-10-16T08:05:12;17.00;99.90
50067;DHT22;35952;52.524;13.340;2022-10-16T08:07:38;17.20;99.90
50067;DHT22;35952;52.524;13.340;2022-10-16T08:10:03;17.30;99.90
50067;DHT22;35952;52.524;13.340;2022-10-16T08:12:29;17.30;99.90
50067;DHT22;35952;52.524;13.340;2022-10-16T08:14:55;17.40;99.90
50067;DHT22;35952;52.524;13.340;2022-10-16T08:17:20;17.50;99.90
50067;DHT22;35952;52.524;13.340;2022-10-16T08:19:46;17.40;99.90
50067;DHT22;35952;52.524;13.340;2022-10-16T08:22:15;17.40;99.90
50067;DHT22;35952;52.524;13.340;2022-10-16T08:24:41;17.60;99.90
50067;DHT22;35952;52.524;13.340;2022-10-16T08:27:07;17.60;99.90
50067;DHT22;35952;52.524;13.340;2022-10-16T08:29:34;17.70;99.90
50067;DHT22;35952;52.524;13.340;2022-10-16T08:31:59;17.60;99.90
50067;DHT22;35952;52.524;13.340;2022-10-16T08:34:25;17.50;99.90
50067;DHT22;35952;52.524;13.340;2022-10-16T08:36:53;17.60;99.90
50067;DHT22;35952;52.524;13.340;2022-10-16T08:39:18;17.40;99.90
50067;DHT22;35952;52.524;13.340;2022-10-16T08:42:00;17.60;99.90
50067;DHT22;35952;52.524;13.340;2022-10-16T08:44:54;17.70;99.90
50067;DHT22;35952;52.524;13.340;2022-10-16T08:50:25;18.10;99.90
50067;DHT22;35952;52.524;13.340;2022-10-16T08:52:52;17.90;99.90
50067;DHT22;35952;52.524;13.340;2022-10-16T08:57:52;18.30;99.90
50067;DHT22;35952;52.524;13.340;2022-10-16T09:00:18;18.40;99.90
50067;DHT22;35952;52.524;13.340;2022-10-16T09:03:06;18.30;99.90
50067;DHT22;35952;52.524;13.340;2022-10-16T09:05:56;18.10;99.90
50067;DHT22;35952;52.524;13.340;2022-10-16T09:08:51;18.30;99.90
50067;DHT22;35952;52.524;13.340;2022-10-16T09:14:23;19.10;99.90
50067;DHT22;35952;52.524;13.340;2022-10-16T09:17:20;19.20;99.90
50067;DHT22;35952;52.524;13.340;2022-10-16T09:22:39;19.20;99.90
50067;DHT22;35952;52.524;13.340;2022-10-16T09:25:12;19.10;99.90
50067;DHT22;35952;52.524;13.340;2022-10-16T09:27:38;19.40;99.90
50067;DHT22;35952;52.524;13.340;2022-10-16T09:30:15;19.70;99.90
50067;DHT22;35952;52.524;13.340;2022-10-16T09:32:42;19.80;99.90
50067;DHT22;35952;52.524;13.340;2022-10-16T09:35:15;19.90;99.90
50067;DHT22;35952;52.524;13.340;2022-10-16T09:37:43;19.80;99.90
50067;DHT22;35952;52.524;13.340;2022-10-16T09:40:27;19.80;99.90
50067;DHT22;35952;52.524;13.340;2022-10-16T09:46:07;19.80;99.90
50067;DHT22;35952;52.524;13.340;2022-10-16T09:48:37;19.60;99.90
50067;DHT22;35952;52.524;13.340;2022-10-16T09:51:13;19.50;99.90
50067;DHT22;35952;52.524;13.340;2022-10-16T09:53:45;19.60;99.90
50067;DHT22;35952;52.524;13.340;2022-10-16T09:56:24;19.70;99.90
50067;DHT22;35952;52.524;13.340;2022-10-16T09:58:55;19.70;99.90
50067;DHT22;35952;52.524;13.340;2022-10-16T10:01:44;19.60;99.90
50067;DHT22;35952;52.524;13.340;2022-10-16T10:04:08;19.50;99.90
50067;DHT22;35952;52.524;13.340;2022-10-16T10:06:37;19.50;99.90
50067;DHT22;35952;52.524;13.340;2022-10-16T10:11:47;19.80;99.90
50067;DHT22;35952;52.524;13.340;2022-10-16T10:14:44;19.90;99.90
50067;DHT22;35952;52.524;13.340;2022-10-16T10:17:22;19.90;99.90
50067;DHT22;35952;52.524;13.340;2022-10-16T10:22:28;20.20;99.90
50067;DHT22;35952;52.524;13.340;2022-10-16T10:25:00;20.10;99.90
50067;DHT22;35952;52.524;13.340;2022-10-16T10:36:28;19.90;99.90
50067;DHT22;35952;52.524;13.340;2022-10-16T10:38:54;20.10;99.90
50067;DHT22;35952;52.524;13.340;2022-10-16T10:49:59;20.50;99.90
50067;DHT22;35952;52.524;13.340;2022-10-16T10:55:15;20.60;99.90
50067;DHT22;35952;52.524;13.340;2022-10-16T11:00:42;20.50;99.90
50067;DHT22;35952;52.524;13.340;2022-10-16T11:05:47;20.80;99.90
50067;DHT22;35952;52.524;13.340;2022-10-16T11:11:07;21.30;99.90
50067;DHT22;35952;52.524;13.340;2022-10-16T11:13:46;21.10;99.90
50067;DHT22;35952;52.524;13.340;2022-10-16T11:16:21;20.60;99.90
50067;DHT22;35952;52.524;13.340;2022-10-16T11:19:03;21.10;99.90
50067;DHT22;35952;52.524;13.340;2022-10-16T11:21:44;21.10;99.90
50067;DHT22;35952;52.524;13.340;2022-10-16T11:24:34;21.50;99.90
50067;DHT22;35952;52.524;13.340;2022-10-16T11:27:06;21.80;99.90
50067;DHT22;35952;52.524;13.340;2022-10-16T11:29:35;21.80;99.90
50067;DHT22;35952;52.524;13.340;2022-10-16T11:32:30;21.70;99.90
50067;DHT22;35952;52.524;13.340;2022-10-16T11:35:06;21.50;99.90
50067;DHT22;35952;52.524;13.340;2022-10-16T11:37:38;21.40;99.90
50067;DHT22;35952;52.524;13.340;2022-10-16T11:40:42;21.40;99.90
50067;DHT22;35952;52.524;13.340;2022-10-16T11:43:27;21.10;99.90
50067;DHT22;35952;52.524;13.340;2022-10-16T11:46:01;20.90;99.90
50067;DHT22;35952;52.524;13.340;2022-10-16T11:48:41;20.80;99.90
50067;DHT22;35952;52.524;13.340;2022-10-16T11:51:19;20.60;99.90
50067;DHT22;35952;52.524;13.340;2022-10-16T11:54:30;20.50;99.90
50067;DHT22;35952;52.524;13.340;2022-10-16T11:56:50;20.20;99.90
50067;DHT22;35952;52.524;13.340;2022-10-16T11:59:30;20.00;99.90
50067;DHT22;35952;52.524;13.340;2022-10-16T12:02:17;20.00;99.90
50067;DHT22;35952;52.524;13.340;2022-10-16T12:04:53;19.90;99.90
50067;DHT22;35952;52.524;13.340;2022-10-16T12:07:27;19.70;99.90
50067;DHT22;35952;52.524;13.340;2022-10-16T12:09:58;19.40;99.90
50067;DHT22;35952;52.524;13.340;2022-10-16T12:15:02;19.70;99.90
50067;DHT22;35952;52.524;13.340;2022-10-16T12:17:35;19.80;99.90
50067;DHT22;35952;52.524;13.340;2022-10-16T12:20:20;19.90;99.90
50067;DHT22;35952;52.524;13.340;2022-10-16T12:25:27;19.80;99.90
50067;DHT22;35952;52.524;13.340;2022-10-16T12:28:20;19.70;99.90
50067;DHT22;35952;52.524;13.340;2022-10-16T12:31:14;19.70;99.90
50067;DHT22;35952;52.524;13.340;2022-10-16T12:33:41;19.80;99.90
50067;DHT22;35952;52.524;13.340;2022-10-16T12:36:13;19.80;99.90
50067;DHT22;35952;52.524;13.340;2022-10-16T12:38:50;19.80;99.90
50067;DHT22;35952;52.524;13.340;2022-10-16T12:41:31;19.70;99.90
50067;DHT22;35952;52.524;13.340;2022-10-16T12:43:57;19.70;99.90
50067;DHT22;35952;52.524;13.340;2022-10-16T12:46:35;19.80;99.90
50067;DHT22;35952;52.524;13.340;2022-10-16T12:51:42;19.90;99.90
50067;DHT22;35952;52.524;13.340;2022-10-16T12:54:30;20.00;99.90
50067;DHT22;35952;52.524;13.340;2022-10-16T12:57:05;20.00;99.90
50067;DHT22;35952;52.524;13.340;2022-10-16T13:08:05;20.20;99.90
50067;DHT22;35952;52.524;13.340;2022-10-16T13:10:55;20.20;99.90
50067;DHT22;35952;52.524;13.340;2022-10-16T13:13:47;20.20;99.90
50067;DHT22;35952;52.524;13.340;2022-10-16T13:19:00;20.40;99.90
50067;DHT22;35952;52.524;13.340;2022-10-16T13:24:36;20.50;99.90
50067;DHT22;35952;52.524;13.340;2022-10-16T13:30:19;20.70;99.90
50067;DHT22;35952;52.524;13.340;2022-10-16T13:32:51;20.60;99.90
50067;DHT22;35952;52.524;13.340;2022-10-16T13:35:23;20.60;99.90
50067;DHT22;35952;52.524;13.340;2022-10-16T13:37:49;20.50;99.90
50067;DHT22;35952;52.524;13.340;2022-10-16T13:40:23;20.50;99.90
50067;DHT22;35952;52.524;13.340;2022-10-16T13:42:50;20.50;99.90
50067;DHT22;35952;52.524;13.340;2022-10-16T13:45:27;20.50;99.90
50067;DHT22;35952;52.524;13.340;2022-10-16T13:48:08;20.40;99.90
50067;DHT22;35952;52.524;13.340;2022-10-16T13:50:34;20.40;99.90
50067;DHT22;35952;52.524;13.340;2022-10-16T13:53:06;20.30;99.90
50067;DHT22;35952;52.524;13.340;2022-10-16T13:55:32;20.40;99.90
50067;DHT22;35952;52.524;13.340;2022-10-16T13:58:12;20.30;99.90
50067;DHT22;35952;52.524;13.340;2022-10-16T14:00:38;20.30;99.90
50067;DHT22;35952;52.524;13.340;2022-10-16T14:03:06;20.30;99.90
50067;DHT22;35952;52.524;13.340;2022-10-16T14:05:33;20.20;99.90
50067;DHT22;35952;52.524;13.340;2022-10-16T14:07:59;20.20;99.90
50067;DHT22;35952;52.524;13.340;2022-10-16T14:10:28;20.20;99.90
50067;DHT22;35952;52.524;13.340;2022-10-16T14:12:57;20.20;99.90
50067;DHT22;35952;52.524;13.340;2022-10-16T14:15:23;20.10;99.90
50067;DHT22;35952;52.524;13.340;2022-10-16T14:17:50;20.20;99.90
50067;DHT22;35952;52.524;13.340;2022-10-16T14:20:27;20.00;99.90
50067;DHT22;35952;52.524;13.340;2022-10-16T14:23:16;20.00;99.90
50067;DHT22;35952;52.524;13.340;2022-10-16T14:25:44;20.00;99.90
50067;DHT22;35952;52.524;13.340;2022-10-16T14:28:21;20.00;99.90
50067;DHT22;35952;52.524;13.340;2022-10-16T14:30:59;20.00;99.90
50067;DHT22;35952;52.524;13.340;2022-10-16T14:36:16;19.90;99.90
50067;DHT22;35952;52.524;13.340;2022-10-16T14:39:05;19.80;99.90
50067;DHT22;35952;52.524;13.340;2022-10-16T14:41:32;19.80;99.90
50067;DHT22;35952;52.524;13.340;2022-10-16T14:44:05;19.80;99.90
50067;DHT22;35952;52.524;13.340;2022-10-16T14:46:41;19.90;99.90
50067;DHT22;35952;52.524;13.340;2022-10-16T14:51:37;19.90;99.90
50067;DHT22;35952;52.524;13.340;2022-10-16T14:54:04;19.90;99.90
50067;DHT22;35952;52.524;13.340;2022-10-16T14:56:32;19.90;99.90
50067;DHT22;35952;52.524;13.340;2022-10-16T14:59:00;19.80;99.90
50067;DHT22;35952;52.524;13.340;2022-10-16T15:01:26;19.90;99.90
50067;DHT22;35952;52.524;13.340;2022-10-16T15:03:51;19.80;99.90
50067;DHT22;35952;52.524;13.340;2022-10-16T15:06:19;19.80;99.90
50067;DHT22;35952;52.524;13.340;2022-10-16T15:08:45;19.50;99.90
50067;DHT22;35952;52.524;13.340;2022-10-16T15:11:13;19.40;99.90
50067;DHT22;35952;52.524;13.340;2022-10-16T15:13:39;19.30;99.90
50067;DHT22;35952;52.524;13.340;2022-10-16T15:16:04;19.10;99.90
50067;DHT22;35952;52.524;13.340;2022-10-16T15:18:30;19.20;99.90
50067;DHT22;35952;52.524;13.340;2022-10-16T15:20:55;19.00;99.90
50067;DHT22;35952;52.524;13.340;2022-10-16T15:23:22;19.20;99.90
50067;DHT22;35952;52.524;13.340;2022-10-16T15:25:49;19.10;99.90
50067;DHT22;35952;52.524;13.340;2022-10-16T15:28:17;19.00;99.90
50067;DHT22;35952;52.524;13.340;2022-10-16T15:30:43;18.80;99.90
50067;DHT22;35952;52.524;13.340;2022-10-16T15:33:17;18.80;99.90
50067;DHT22;35952;52.524;13.340;2022-10-16T15:35:46;18.60;99.90
50067;DHT22;35952;52.524;13.340;2022-10-16T15:38:13;18.50;99.90
50067;DHT22;35952;52.524;13.340;2022-10-16T15:40:39;18.50;99.90
50067;DHT22;35952;52.524;13.340;2022-10-16T15:43:05;18.60;99.90
50067;DHT22;35952;52.524;13.340;2022-10-16T15:45:30;18.70;99.90
50067;DHT22;35952;52.524;13.340;2022-10-16T15:47:56;18.50;99.90
50067;DHT22;35952;52.524;13.340;2022-10-16T15:50:21;18.30;99.90
50067;DHT22;35952;52.524;13.340;2022-10-16T15:52:47;18.10;99.90
50067;DHT22;35952;52.524;13.340;2022-10-16T15:55:13;18.10;99.90
50067;DHT22;35952;52.524;13.340;2022-10-16T15:57:39;17.90;99.90
50067;DHT22;35952;52.524;13.340;2022-10-16T16:00:12;17.80;99.90
50067;DHT22;35952;52.524;13.340;2022-10-16T16:02:39;17.60;99.90
50067;DHT22;35952;52.524;13.340;2022-10-16T16:05:05;17.80;99.90
50067;DHT22;35952;52.524;13.340;2022-10-16T16:07:34;17.60;99.90
50067;DHT22;35952;52.524;13.340;2022-10-16T16:10:00;17.40;99.90
50067;DHT22;35952;52.524;13.340;2022-10-16T16:12:26;17.20;99.90
50067;DHT22;35952;52.524;13.340;2022-10-16T16:14:51;17.10;99.90
50067;DHT22;35952;52.524;13.340;2022-10-16T16:17:17;17.00;99.90
50067;DHT22;35952;52.524;13.340;2022-10-16T16:19:43;16.90;99.90
50067;DHT22;35952;52.524;13.340;2022-10-16T16:22:09;16.80;99.90
50067;DHT22;35952;52.524;13.340;2022-10-16T16:24:34;16.70;99.90
50067;DHT22;35952;52.524;13.340;2022-10-16T16:27:02;16.70;99.90
50067;DHT22;35952;52.524;13.340;2022-10-16T16:29:28;16.60;99.90
50067;DHT22;35952;52.524;13.340;2022-10-16T16:31:53;16.50;99.90
50067;DHT22;35952;52.524;13.340;2022-10-16T16:34:24;16.40;99.90
50067;DHT22;35952;52.524;13.340;2022-10-16T16:36:50;16.40;99.90
50067;DHT22;35952;52.524;13.340;2022-10-16T16:39:16;16.30;99.90
50067;DHT22;35952;52.524;13.340;2022-10-16T16:41:41;16.20;99.90
50067;DHT22;35952;52.524;13.340;2022-10-16T16:44:13;16.20;99.90
50067;DHT22;35952;52.524;13.340;2022-10-16T16:46:39;16.10;99.90
50067;DHT22;35952;52.524;13.340;2022-10-16T16:49:06;16.00;99.90
50067;DHT22;35952;52.524;13.340;2022-10-16T16:51:33;16.00;99.90
50067;DHT22;35952;52.524;13.340;2022-10-16T16:53:59;16.00;99.90
50067;DHT22;35952;52.524;13.340;2022-10-16T16:56:25;15.90;99.90
50067;DHT22;35952;52.524;13.340;2022-10-16T16:58:53;15.80;99.90
50067;DHT22;35952;52.524;13.340;2022-10-16T17:01:20;15.80;99.90
50067;DHT22;35952;52.524;13.340;2022-10-16T17:03:48;15.70;99.90